Amo, Colorado
Current Conditions -  °F | °C
As of 1:14 AM on Tuesday 21 Oct 2014 (Local Time) from KFLY Reporting Station
Clear Clear  
Wind Chill: 45°   Ceiling: Unl
Heat Index: 45°   Visibility: 10mi
Dew Point: 39°   Wind: 3mph
Humidity: 80%   Direction: 130°SE
Pressure: 30.18"   Gusts: NA
Location:  39.0051°N, 104.503°W
Report Text: KFLY 210714Z AUTO 13003KT 10SM CLR 07/04 A3018 RMK AO2 T00740041
Loading
Personal Weather Stations






























Interactive Weather Map
Tropical Storm Tracking
New forecast layout! Learn more

10-Day Weather Forecast

Advertisements
Track Severe Weather on mobile